createdAt,value
2023-04-03T00:00:35.227Z,100389.47
2023-04-03T00:01:39.328Z,100386.84
2023-04-03T00:02:42.042Z,100384.19
2023-04-03T00:03:44.376Z,100384.25
2023-04-03T00:04:46.946Z,100384.31
2023-04-03T00:05:49.507Z,100387.88
2023-04-03T00:06:51.743Z,100382.66
2023-04-03T00:07:53.802Z,100388.84
2023-04-03T00:08:55.792Z,100390.63
2023-04-03T00:09:57.730Z,100382.72
2023-04-03T00:11:00.638Z,100380.13
2023-04-03T00:12:02.718Z,100386.28
2023-04-03T00:13:06.634Z,100378.38
2023-04-03T00:14:08.607Z,100378.44
2023-04-03T00:15:11.037Z,100378.47
2023-04-03T00:16:13.195Z,100380.25
2023-04-03T00:17:15.073Z,100379.44
2023-04-03T00:18:17.032Z,100378.59
2023-04-03T00:19:19.285Z,100379.50
2023-04-03T00:20:21.466Z,100384.78
2023-04-03T00:21:23.469Z,100380.44
2023-04-03T00:22:27.724Z,100379.59
2023-04-03T00:23:30.025Z,100375.19
2023-04-03T00:24:31.999Z,100374.34
2023-04-03T00:25:34.209Z,100375.22
2023-04-03T00:26:36.332Z,100377.84
2023-04-03T00:27:40.659Z,100372.56
2023-04-03T00:28:42.738Z,100369.94
2023-04-03T00:29:44.864Z,100378.66
2023-04-03T00:30:47.685Z,100374.28
2023-04-03T00:31:49.709Z,100376.88
2023-04-03T00:32:53.399Z,100384.78
2023-04-03T00:33:55.630Z,100378.59
2023-04-03T00:34:57.610Z,100375.94
2023-04-03T00:35:59.794Z,100373.31
2023-04-03T00:37:01.812Z,100373.31
2023-04-03T00:38:04.013Z,100371.66
2023-04-03T00:39:07.202Z,100369.88
2023-04-03T00:40:10.571Z,100371.69
2023-04-03T00:41:12.536Z,100374.34
2023-04-03T00:42:14.683Z,100364.72
2023-04-03T00:43:23.204Z,100369.09
2023-04-03T00:44:34.766Z,100370.00
2023-04-03T00:45:39.201Z,100370.97
2023-04-03T00:46:41.583Z,100372.75
2023-04-03T00:47:43.668Z,100367.50
2023-04-03T00:48:47.611Z,100372.81
2023-04-03T00:49:51.897Z,100364.03
2023-04-03T00:50:54.733Z,100367.59
2023-04-03T00:51:58.978Z,100374.66
2023-04-03T00:53:01.841Z,100376.47
2023-04-03T00:54:08.142Z,100365.13
2023-04-03T00:55:11.426Z,100372.22
2023-04-03T00:56:18.476Z,100368.78
2023-04-03T00:57:20.699Z,100369.69
2023-04-03T00:58:27.612Z,100364.47
2023-04-03T00:59:35.946Z,100363.66
2023-04-03T01:00:43.066Z,100370.75
2023-04-03T01:01:45.642Z,100370.81
2023-04-03T01:02:47.749Z,100368.22
2023-04-03T01:03:50.039Z,100370.03
2023-04-03T01:04:52.349Z,100374.47
2023-04-03T01:05:54.644Z,100371.88
2023-04-03T01:06:59.618Z,100374.53
2023-04-03T01:08:02.334Z,100375.47
2023-04-03T01:09:05.833Z,100375.50
2023-04-03T01:10:11.845Z,100380.81
2023-04-03T01:11:13.975Z,100386.09
2023-04-03T01:12:24.853Z,100374.66
2023-04-03T01:13:30.434Z,100385.19
2023-04-03T01:14:32.361Z,100379.88
2023-04-03T01:15:36.137Z,100380.72
2023-04-03T01:16:38.312Z,100378.03
2023-04-03T01:17:44.348Z,100385.00
2023-04-03T01:18:47.093Z,100375.31
2023-04-03T01:19:59.669Z,100377.94
2023-04-03T01:21:04.449Z,100376.19
2023-04-03T01:22:27.630Z,100387.53
2023-04-03T01:23:59.562Z,100377.03
2023-04-03T01:25:02.286Z,100379.72
2023-04-03T01:26:06.377Z,100386.75
2023-04-03T01:27:11.332Z,100375.38
2023-04-03T01:28:29.168Z,100384.13
2023-04-03T01:29:31.397Z,100382.38
2023-04-03T01:30:42.754Z,100385.88
2023-04-03T01:32:05.544Z,100386.75
2023-04-03T01:33:07.641Z,100383.31
2023-04-03T01:34:09.670Z,100380.72
2023-04-03T01:35:12.429Z,100386.03
2023-04-03T01:36:22.648Z,100384.31
2023-04-03T01:37:24.612Z,100389.63
2023-04-03T01:38:27.446Z,100380.81
2023-04-03T01:39:29.495Z,100379.09
2023-04-03T01:40:31.687Z,100387.88
2023-04-03T01:41:34.036Z,100387.91
2023-04-03T01:42:36.064Z,100394.09
2023-04-03T01:43:38.226Z,100388.81
2023-04-03T01:44:40.463Z,100385.38
2023-04-03T01:45:42.571Z,100387.97
2023-04-03T01:46:44.729Z,100393.25
2023-04-03T01:47:46.868Z,100387.09
2023-04-03T01:48:49.620Z,100390.59
2023-04-03T01:49:51.690Z,100381.84
2023-04-03T01:50:53.819Z,100386.22
2023-04-03T01:51:55.764Z,100384.47
2023-04-03T01:52:57.814Z,100390.59
2023-04-03T01:54:00.030Z,100394.94
2023-04-03T01:55:02.069Z,100386.22
2023-04-03T01:56:05.871Z,100383.59
2023-04-03T01:57:08.164Z,100391.50
2023-04-03T01:58:10.097Z,100385.41
2023-04-03T01:59:12.152Z,100382.78
2023-04-03T02:00:14.762Z,100384.56
2023-04-03T02:01:17.390Z,100388.09
2023-04-03T02:02:21.311Z,100386.38
2023-04-03T02:03:23.789Z,100384.63
2023-04-03T02:04:25.974Z,100384.69
2023-04-03T02:05:28.076Z,100386.44
2023-04-03T02:06:30.124Z,100384.72
2023-04-03T02:07:32.137Z,100381.25
2023-04-03T02:08:34.192Z,100383.91
2023-04-03T02:10:00.484Z,100383.03
2023-04-03T02:11:02.612Z,100384.81
2023-04-03T02:12:04.549Z,100381.34
2023-04-03T02:13:07.193Z,100382.22
2023-04-03T02:14:09.174Z,100380.50
2023-04-03T02:15:31.181Z,100377.91
2023-04-03T02:16:33.128Z,100380.53
2023-04-03T02:17:36.525Z,100385.78
2023-04-03T02:18:38.720Z,100384.03
2023-04-03T02:19:41.053Z,100383.97
2023-04-03T02:20:43.623Z,100390.03
2023-04-03T02:21:45.745Z,100389.94
2023-04-03T02:22:48.069Z,100394.25
2023-04-03T02:23:49.988Z,100393.31
2023-04-03T02:24:53.048Z,100391.44
2023-04-03T02:25:54.914Z,100385.22
2023-04-03T02:26:56.964Z,100381.63
2023-04-03T02:27:59.646Z,100384.22
2023-04-03T02:29:01.601Z,100377.94
2023-04-03T02:30:04.694Z,100383.06
2023-04-03T02:31:10.905Z,100381.19
2023-04-03T02:32:12.966Z,100382.00
2023-04-03T02:33:14.911Z,100380.13
2023-04-03T02:34:17.114Z,100381.84
2023-04-03T02:35:19.219Z,100381.78
2023-04-03T02:36:21.298Z,100384.22
2023-04-03T02:37:23.521Z,100378.00
2023-04-03T02:38:26.026Z,100378.81
2023-04-03T02:39:28.185Z,100383.13
2023-04-03T02:40:30.040Z,100380.47
2023-04-03T02:41:36.692Z,100381.28
2023-04-03T02:42:38.799Z,100384.72
2023-04-03T02:43:41.307Z,100375.84
2023-04-03T02:44:43.479Z,100385.41
2023-04-03T02:45:45.501Z,100381.72
2023-04-03T02:46:47.625Z,100379.78
2023-04-03T02:47:49.626Z,100384.03
2023-04-03T02:48:51.674Z,100377.69
2023-04-03T02:49:53.932Z,100371.28
2023-04-03T02:50:56.546Z,100364.94
2023-04-03T02:51:58.752Z,100376.09
2023-04-03T02:53:00.917Z,100372.38
2023-04-03T02:54:03.143Z,100370.41
2023-04-03T02:55:06.709Z,100369.19
2023-04-03T02:56:08.647Z,100375.84
2023-04-03T02:57:10.836Z,100374.53
2023-04-03T02:58:13.034Z,100372.56
2023-04-03T02:59:15.537Z,100368.69
2023-04-03T03:00:17.750Z,100377.16
2023-04-03T03:01:19.987Z,100373.38
2023-04-03T03:02:22.286Z,100373.38
2023-04-03T03:03:24.403Z,100379.28
2023-04-03T03:04:26.479Z,100372.88
2023-04-03T03:05:29.063Z,100384.31
2023-04-03T03:06:31.100Z,100379.91
2023-04-03T03:07:33.471Z,100386.78
2023-04-03T03:08:36.671Z,100379.56
2023-04-03T03:09:38.594Z,100377.78
2023-04-03T03:10:40.554Z,100383.09
2023-04-03T03:11:42.463Z,100384.81
2023-04-03T03:12:44.604Z,100378.66
2023-04-03T03:13:46.467Z,100379.56
2023-04-03T03:14:51.718Z,100389.25
2023-04-03T03:15:53.741Z,100390.03
2023-04-03T03:16:55.815Z,100385.56
2023-04-03T03:17:57.719Z,100389.88
2023-04-03T03:18:59.677Z,100387.97
2023-04-03T03:20:01.653Z,100387.06
2023-04-03T03:21:05.380Z,100394.84
2023-04-03T03:22:07.545Z,100389.44
2023-04-03T03:23:09.829Z,100398.09
2023-04-03T03:24:13.135Z,100384.88
2023-04-03T03:25:15.167Z,100392.53
2023-04-03T03:26:17.144Z,100398.59
2023-04-03T03:27:19.265Z,100386.91
2023-04-03T03:28:21.241Z,100388.47
2023-04-03T03:29:23.465Z,100392.66
2023-04-03T03:30:25.581Z,100386.25
2023-04-03T03:31:27.679Z,100392.19
2023-04-03T03:32:29.760Z,100383.91
2023-04-03T03:33:31.972Z,100392.41
2023-04-03T03:34:33.981Z,100390.59
2023-04-03T03:35:36.253Z,100386.56
2023-04-03T03:36:38.672Z,100401.81
2023-04-03T03:37:41.029Z,100389.53
2023-04-03T03:38:43.093Z,100394.91
2023-04-03T03:39:45.111Z,100388.44
2023-04-03T03:40:49.841Z,100386.16
2023-04-03T03:41:52.026Z,100396.56
2023-04-03T03:42:53.907Z,100388.38
2023-04-03T03:43:56.234Z,100388.38
2023-04-03T03:44:58.137Z,100388.19
2023-04-03T03:46:00.136Z,100388.19
2023-04-03T03:47:02.068Z,100388.09
2023-04-03T03:48:04.653Z,100393.28
2023-04-03T03:49:06.983Z,100392.22
2023-04-03T03:50:09.901Z,100395.53
2023-04-03T03:51:12.159Z,100393.50
2023-04-03T03:52:14.119Z,100396.75
2023-04-03T03:53:16.378Z,100404.22
2023-04-03T03:54:18.357Z,100394.25
2023-04-03T03:55:20.369Z,100398.34
2023-04-03T03:56:22.433Z,100397.44
2023-04-03T03:57:24.556Z,100397.84
2023-04-03T03:58:26.601Z,100398.81
2023-04-03T03:59:28.613Z,100399.66
2023-04-03T04:00:33.861Z,100400.44
2023-04-03T04:01:35.927Z,100397.84
2023-04-03T04:02:38.133Z,100398.75
2023-04-03T04:03:40.186Z,100395.25
2023-04-03T04:04:42.272Z,100397.63
2023-04-03T04:05:44.746Z,100405.09
2023-04-03T04:06:46.792Z,100396.91
2023-04-03T04:07:49.190Z,100398.66
2023-04-03T04:08:51.219Z,100400.31
2023-04-03T04:09:53.182Z,100399.63
2023-04-03T04:10:55.259Z,100392.59
2023-04-03T04:11:57.184Z,100394.91
2023-04-03T04:12:59.396Z,100391.03
2023-04-03T04:14:01.360Z,100391.53
2023-04-03T04:15:04.641Z,100385.06
2023-04-03T04:16:07.027Z,100390.59
2023-04-03T04:17:09.289Z,100396.47
2023-04-03T04:18:11.263Z,100390.72
2023-04-03T04:19:13.688Z,100398.44
2023-04-03T04:20:15.643Z,100390.44
2023-04-03T04:21:17.578Z,100398.09
2023-04-03T04:22:19.566Z,100393.97
2023-04-03T04:23:21.548Z,100388.88
2023-04-03T04:24:26.494Z,100396.16
2023-04-03T04:25:28.386Z,100393.63
2023-04-03T04:26:30.413Z,100397.69
2023-04-03T04:27:32.360Z,100388.06
2023-04-03T04:28:34.241Z,100394.69
2023-04-03T04:29:38.376Z,100393.47
2023-04-03T04:30:40.999Z,100393.91
2023-04-03T04:31:43.005Z,100392.16
2023-04-03T04:32:44.953Z,100400.13
2023-04-03T04:33:46.928Z,100400.09
2023-04-03T04:34:48.984Z,100392.56
2023-04-03T04:35:51.219Z,100400.34
2023-04-03T04:36:53.408Z,100393.72
2023-04-03T04:37:55.786Z,100399.84
2023-04-03T04:38:58.183Z,100402.31
2023-04-03T04:40:00.321Z,100406.41
2023-04-03T04:41:02.428Z,100401.19
2023-04-03T04:42:04.520Z,100396.97
2023-04-03T04:43:06.584Z,100407.88
2023-04-03T04:44:11.036Z,100403.94
2023-04-03T04:45:13.113Z,100400.22
2023-04-03T04:46:15.121Z,100405.28
2023-04-03T04:47:17.240Z,100395.50
2023-04-03T04:48:19.173Z,100401.81
2023-04-03T04:49:21.207Z,100401.28
2023-04-03T04:50:23.285Z,100395.56
2023-04-03T04:51:25.289Z,100403.91
2023-04-03T04:52:27.342Z,100400.09
2023-04-03T04:53:29.354Z,100404.72
2023-04-03T04:54:31.361Z,100399.94
2023-04-03T04:55:33.345Z,100396.91
2023-04-03T04:56:35.757Z,100396.50
2023-04-03T04:57:39.909Z,100401.50
2023-04-03T04:58:42.033Z,100401.78
2023-04-03T04:59:44.011Z,100405.66
2023-04-03T05:00:46.215Z,100403.41
2023-04-03T05:01:48.229Z,100396.31
2023-04-03T05:02:50.305Z,100399.78
2023-04-03T05:03:52.569Z,100404.59
2023-04-03T05:04:54.543Z,100396.28
2023-04-03T05:05:56.662Z,100404.41
2023-04-03T05:06:58.735Z,100413.91
2023-04-03T05:08:00.904Z,100399.66
2023-04-03T05:09:03.137Z,100411.91
2023-04-03T05:10:05.764Z,100401.66
2023-04-03T05:11:07.893Z,100403.00
2023-04-03T05:12:09.965Z,100410.19
2023-04-03T05:13:11.966Z,100414.44
2023-04-03T05:14:14.121Z,100413.00
2023-04-03T05:15:16.216Z,100409.56
2023-04-03T05:16:18.541Z,100407.97
2023-04-03T05:17:20.616Z,100408.13
2023-04-03T05:18:22.912Z,100405.84
2023-04-03T05:19:24.873Z,100400.53
2023-04-03T05:20:27.094Z,100404.06
2023-04-03T05:21:33.413Z,100406.41
2023-04-03T05:22:35.718Z,100400.66
2023-04-03T05:23:37.699Z,100399.84
2023-04-03T05:24:39.609Z,100402.38
2023-04-03T05:25:41.607Z,100403.78
2023-04-03T05:26:44.674Z,100404.19
2023-04-03T05:27:46.757Z,100398.59
2023-04-03T05:28:48.652Z,100398.00
2023-04-03T05:29:50.949Z,100393.78
2023-04-03T05:31:00.836Z,100396.16
2023-04-03T05:32:02.848Z,100388.88
2023-04-03T05:33:04.905Z,100392.72
2023-04-03T05:34:07.309Z,100398.31
2023-04-03T05:35:10.081Z,100397.41
2023-04-03T05:36:12.213Z,100396.00
2023-04-03T05:37:14.284Z,100398.31
2023-04-03T05:38:16.768Z,100401.19
2023-04-03T05:39:18.880Z,100395.00
2023-04-03T05:40:21.182Z,100396.47
2023-04-03T05:41:23.690Z,100393.41
2023-04-03T05:42:25.906Z,100398.19
2023-04-03T05:43:27.881Z,100400.69
2023-04-03T05:44:29.806Z,100395.19
2023-04-03T05:45:31.970Z,100402.91
2023-04-03T05:46:34.371Z,100399.88
2023-04-03T05:47:36.489Z,100397.81
2023-04-03T05:48:38.452Z,100402.91
2023-04-03T05:49:43.509Z,100392.84
2023-04-03T05:50:45.541Z,100401.28
2023-04-03T05:51:47.802Z,100405.31
2023-04-03T05:52:53.276Z,100399.53
2023-04-03T05:54:02.188Z,100403.78
2023-04-03T05:55:04.700Z,100402.00
2023-04-03T05:56:06.947Z,100407.47
2023-04-03T05:57:08.983Z,100406.41
2023-04-03T05:58:11.685Z,100413.44
2023-04-03T05:59:13.840Z,100408.78
2023-04-03T06:00:19.385Z,100403.44
2023-04-03T06:01:21.765Z,100406.41
2023-04-03T06:02:25.950Z,100405.03
2023-04-03T06:03:28.146Z,100399.81
2023-04-03T06:04:30.268Z,100403.16
2023-04-03T06:05:32.496Z,100401.00
2023-04-03T06:06:49.453Z,100400.28
2023-04-03T06:07:51.919Z,100402.63
2023-04-03T06:08:54.336Z,100406.16
2023-04-03T06:09:57.828Z,100406.97
2023-04-03T06:10:59.889Z,100394.88
2023-04-03T06:12:01.882Z,100403.25
2023-04-03T06:13:03.864Z,100404.84
2023-04-03T06:14:06.010Z,100399.66
2023-04-03T06:15:09.325Z,100403.28
2023-04-03T06:16:16.525Z,100398.34
2023-04-03T06:17:19.256Z,100401.50
2023-04-03T06:18:21.876Z,100407.53
2023-04-03T06:19:23.967Z,100401.94
2023-04-03T06:20:26.084Z,100405.25
2023-04-03T06:21:28.121Z,100403.78
2023-04-03T06:22:31.260Z,100398.81
2023-04-03T06:23:34.053Z,100405.44
2023-04-03T06:24:36.605Z,100402.00
2023-04-03T06:25:38.794Z,100396.59
2023-04-03T06:26:40.716Z,100396.03
2023-04-03T06:27:42.730Z,100396.06
2023-04-03T06:28:44.828Z,100394.19
2023-04-03T06:29:46.776Z,100401.69
2023-04-03T06:30:48.825Z,100392.97
2023-04-03T06:31:52.129Z,100393.91
2023-04-03T06:32:54.249Z,100397.59
2023-04-03T06:33:57.590Z,100401.06
2023-04-03T06:34:59.609Z,100406.41
2023-04-03T06:36:05.084Z,100398.28
2023-04-03T06:37:07.459Z,100396.97
2023-04-03T06:38:10.759Z,100399.78
2023-04-03T06:39:22.254Z,100401.31
2023-04-03T06:40:26.269Z,100403.97
2023-04-03T06:41:28.271Z,100391.25
2023-04-03T06:42:30.239Z,100397.84
2023-04-03T06:43:34.376Z,100398.94
2023-04-03T06:44:36.889Z,100388.31
2023-04-03T06:45:39.098Z,100388.16
2023-04-03T06:46:41.621Z,100388.38
2023-04-03T06:47:44.262Z,100401.69
2023-04-03T06:48:46.590Z,100393.75
2023-04-03T06:50:50.738Z,100396.81
2023-04-03T06:51:53.439Z,100398.38
2023-04-03T06:52:55.375Z,100397.31
2023-04-03T06:54:01.002Z,100405.16
2023-04-03T06:55:03.046Z,100406.84
2023-04-03T06:56:05.867Z,100402.31
2023-04-03T06:57:08.721Z,100394.19
2023-04-03T06:58:10.691Z,100402.06
2023-04-03T06:59:14.836Z,100397.50
2023-04-03T07:00:17.570Z,100403.56
2023-04-03T07:01:23.382Z,100398.91
2023-04-03T07:02:25.571Z,100405.03
2023-04-03T07:03:27.835Z,100397.97
2023-04-03T07:04:30.042Z,100404.91
2023-04-03T07:05:32.385Z,100406.56
2023-04-03T07:06:35.748Z,100395.78
2023-04-03T07:07:39.106Z,100393.84
2023-04-03T07:08:41.562Z,100405.22
2023-04-03T07:09:45.244Z,100398.97
2023-04-03T07:10:47.400Z,100395.53
2023-04-03T07:11:49.390Z,100403.50
2023-04-03T07:12:51.357Z,100401.63
2023-04-03T07:13:54.431Z,100397.78
2023-04-03T07:14:56.624Z,100403.00
2023-04-03T07:15:58.850Z,100404.56
2023-04-03T07:17:00.847Z,100403.66
2023-04-03T07:18:02.925Z,100402.78
2023-04-03T07:19:04.867Z,100405.38
2023-04-03T07:20:08.457Z,100401.78
2023-04-03T07:21:10.573Z,100409.59
2023-04-03T07:22:13.321Z,100405.94
2023-04-03T07:23:15.462Z,100408.34
2023-04-03T07:24:17.490Z,100405.72
2023-04-03T07:25:19.433Z,100407.34
2023-04-03T07:26:22.292Z,100406.25
2023-04-03T07:27:24.423Z,100410.50
2023-04-03T07:28:27.135Z,100404.06
2023-04-03T07:29:29.021Z,100405.44
2023-04-03T07:30:31.183Z,100411.44
2023-04-03T07:31:33.132Z,100412.31
2023-04-03T07:32:35.031Z,100410.47
2023-04-03T07:33:38.358Z,100412.09
2023-04-03T07:34:40.861Z,100408.28
2023-04-03T07:35:43.669Z,100418.03
2023-04-03T07:36:45.579Z,100411.22
2023-04-03T07:37:47.520Z,100399.53
2023-04-03T07:38:50.596Z,100409.91
2023-04-03T07:39:52.754Z,100411.34
2023-04-03T07:40:54.969Z,100412.81
2023-04-03T07:41:57.398Z,100412.69
2023-04-03T07:42:59.722Z,100415.97
2023-04-03T07:44:01.803Z,100405.75
2023-04-03T07:45:05.668Z,100420.03
2023-04-03T07:46:07.823Z,100410.06
2023-04-03T07:47:09.842Z,100414.16
2023-04-03T07:48:13.163Z,100408.19
2023-04-03T07:49:15.808Z,100414.16
2023-04-03T07:50:18.191Z,100413.03
2023-04-03T07:51:20.846Z,100415.13
2023-04-03T07:52:22.954Z,100410.88
2023-04-03T07:53:24.864Z,100415.19
2023-04-03T07:54:27.079Z,100413.25
2023-04-03T07:55:29.114Z,100407.72
2023-04-03T07:56:31.062Z,100411.00
2023-04-03T07:57:33.297Z,100406.31
2023-04-03T07:58:35.418Z,100413.41
2023-04-03T07:59:37.476Z,100407.50
2023-04-03T08:00:40.440Z,100405.66
2023-04-03T08:01:42.565Z,100409.03
2023-04-03T08:02:54.620Z,100405.06
2023-04-03T08:03:56.656Z,100410.69
2023-04-03T08:04:59.651Z,100413.41
2023-04-03T08:06:09.194Z,100405.34
2023-04-03T08:07:13.870Z,100408.97
2023-04-03T08:08:21.568Z,100413.41
2023-04-03T08:09:24.093Z,100400.72
2023-04-03T08:10:26.089Z,100406.50
2023-04-03T08:11:28.469Z,100411.22
2023-04-03T08:12:31.012Z,100408.41
2023-04-03T08:13:33.274Z,100405.75
2023-04-03T08:14:37.826Z,100401.50
2023-04-03T08:15:40.088Z,100404.16
2023-04-03T08:16:42.825Z,100408.56
2023-04-03T08:17:44.935Z,100407.34
2023-04-03T08:18:46.848Z,100410.88
2023-04-03T08:19:48.942Z,100407.63
2023-04-03T08:20:51.219Z,100407.56
2023-04-03T08:21:55.806Z,100406.19
2023-04-03T08:22:57.743Z,100400.69
2023-04-03T08:23:59.689Z,100397.94
2023-04-03T08:25:02.928Z,100402.09
2023-04-03T08:26:10.179Z,100402.34
2023-04-03T08:27:12.596Z,100397.66
2023-04-03T08:28:14.634Z,100401.66
2023-04-03T08:29:16.593Z,100409.47
2023-04-03T08:30:18.779Z,100403.00
2023-04-03T08:31:21.353Z,100407.22
2023-04-03T08:32:24.263Z,100409.69
2023-04-03T08:33:26.466Z,100407.88
2023-04-03T08:34:28.404Z,100406.16
2023-04-03T08:35:30.948Z,100406.84
2023-04-03T08:36:33.037Z,100413.06
2023-04-03T08:37:38.201Z,100397.72
2023-04-03T08:38:40.198Z,100408.81
2023-04-03T08:39:42.172Z,100409.91
2023-04-03T08:40:46.857Z,100412.19
2023-04-03T08:41:49.592Z,100406.75
2023-04-03T08:43:26.890Z,100407.56
2023-04-03T08:44:50.495Z,100402.22
2023-04-03T08:45:56.690Z,100414.13
2023-04-03T08:47:07.765Z,100406.63
2023-04-03T08:48:18.871Z,100409.44
2023-04-03T08:49:37.027Z,100407.94
2023-04-03T08:50:42.975Z,100413.91
2023-04-03T08:51:51.126Z,100408.56
2023-04-03T08:52:57.581Z,100407.56
2023-04-03T08:54:26.626Z,100413.59
2023-04-03T08:55:38.507Z,100416.66
2023-04-03T08:56:42.140Z,100412.09
2023-04-03T08:57:46.850Z,100408.03
2023-04-03T08:59:02.482Z,100410.56
2023-04-03T09:00:15.986Z,100410.00
2023-04-03T09:01:34.730Z,100405.38
2023-04-03T09:02:47.309Z,100409.75
2023-04-03T09:03:50.331Z,100410.47
2023-04-03T09:04:52.302Z,100406.53
2023-04-03T09:05:58.724Z,100419.47
2023-04-03T09:07:15.284Z,100411.13
2023-04-03T09:08:27.119Z,100408.63
2023-04-03T09:09:36.566Z,100411.06
2023-04-03T09:10:41.832Z,100410.00
2023-04-03T09:12:21.165Z,100405.03
2023-04-03T09:13:35.611Z,100407.09
2023-04-03T09:14:43.474Z,100413.13
2023-04-03T09:15:45.702Z,100403.84
2023-04-03T09:16:59.787Z,100406.41
2023-04-03T09:18:15.816Z,100409.03
2023-04-03T09:19:17.716Z,100407.56
2023-04-03T09:20:38.932Z,100402.03
2023-04-03T09:21:44.135Z,100403.50
2023-04-03T09:22:51.821Z,100396.34
2023-04-03T09:23:59.779Z,100399.38
2023-04-03T09:25:23.622Z,100409.72
2023-04-03T09:26:42.349Z,100409.38
2023-04-03T09:27:44.400Z,100414.59
2023-04-03T09:28:50.593Z,100412.50
2023-04-03T09:29:56.288Z,100412.25
2023-04-03T09:30:58.366Z,100409.75
2023-04-03T09:32:13.605Z,100415.78
2023-04-03T09:33:16.501Z,100402.28
2023-04-03T09:34:29.036Z,100419.78
2023-04-03T09:35:44.729Z,100409.47
2023-04-03T09:36:55.748Z,100402.06
2023-04-03T09:38:03.651Z,100411.75
2023-04-03T09:39:23.204Z,100413.47
2023-04-03T09:40:27.899Z,100410.97
2023-04-03T09:41:30.178Z,100413.34
2023-04-03T09:42:33.475Z,100411.28
2023-04-03T09:43:40.032Z,100420.09
2023-04-03T09:44:42.034Z,100418.06
2023-04-03T09:45:44.947Z,100410.25
2023-04-03T09:46:46.937Z,100405.16
2023-04-03T09:47:49.132Z,100393.69
2023-04-03T09:49:05.041Z,100406.28
2023-04-03T09:50:15.865Z,100416.81
2023-04-03T09:51:18.119Z,100409.94
2023-04-03T09:52:30.118Z,100415.63
2023-04-03T09:53:43.943Z,100419.78
2023-04-03T09:54:45.843Z,100412.50
2023-04-03T09:55:47.948Z,100412.25
2023-04-03T09:56:54.705Z,100423.25
2023-04-03T09:58:03.700Z,100411.03
2023-04-03T09:59:05.650Z,100422.94
2023-04-03T10:00:23.323Z,100420.88
2023-04-03T10:01:30.844Z,100412.66
2023-04-03T10:02:37.591Z,100407.22
2023-04-03T10:03:42.568Z,100420.50
2023-04-03T10:04:45.951Z,100404.25
2023-04-03T10:05:51.936Z,100416.53
2023-04-03T10:06:56.663Z,100413.06
2023-04-03T10:08:20.751Z,100414.38
2023-04-03T10:09:28.662Z,100410.88
2023-04-03T10:10:30.830Z,100411.66
2023-04-03T10:11:33.742Z,100418.97
2023-04-03T10:12:35.775Z,100398.50
2023-04-03T10:13:51.086Z,100417.38
2023-04-03T10:14:57.044Z,100418.91
2023-04-03T10:16:09.264Z,100410.25
2023-04-03T10:17:28.210Z,100416.47
2023-04-03T10:18:45.981Z,100421.66
2023-04-03T10:20:05.327Z,100414.00
2023-04-03T10:21:39.544Z,100416.44
2023-04-03T10:22:53.860Z,100411.38
2023-04-03T10:24:30.304Z,100422.59
2023-04-03T10:26:05.772Z,100412.88
2023-04-03T10:27:46.130Z,100415.06
2023-04-03T10:29:04.206Z,100419.91
2023-04-03T10:30:24.584Z,100408.81
2023-04-03T10:31:44.975Z,100412.09
2023-04-03T10:32:55.936Z,100406.13
2023-04-03T10:34:25.667Z,100407.34
2023-04-03T10:35:52.510Z,100409.09
2023-04-03T10:37:02.664Z,100406.06
2023-04-03T10:38:17.048Z,100412.56
2023-04-03T10:39:34.232Z,100406.47
2023-04-03T10:41:11.702Z,100403.47
2023-04-03T10:42:26.593Z,100404.94
2023-04-03T10:43:46.735Z,100406.19
2023-04-03T10:45:10.148Z,100399.66
2023-04-03T10:46:36.835Z,100394.22
2023-04-03T10:48:08.272Z,100406.38
2023-04-03T10:49:31.430Z,100400.06
2023-04-03T10:51:03.146Z,100410.84
2023-04-03T10:52:54.172Z,100410.09
2023-04-03T10:54:21.991Z,100412.50
2023-04-03T10:55:49.257Z,100409.75
2023-04-03T10:57:14.703Z,100407.63
2023-04-03T10:58:27.881Z,100402.41
2023-04-03T10:59:34.128Z,100409.09
2023-04-03T11:00:41.720Z,100408.31
2023-04-03T11:01:47.487Z,100403.16
2023-04-03T11:02:57.884Z,100406.59
2023-04-03T11:04:05.015Z,100407.56
2023-04-03T11:05:48.684Z,100413.50
2023-04-03T11:07:02.786Z,100409.41
2023-04-03T11:08:12.592Z,100413.34
2023-04-03T11:09:32.540Z,100405.53
2023-04-03T11:10:48.825Z,100407.06
2023-04-03T11:11:54.676Z,100403.63
2023-04-03T11:13:08.073Z,100402.72
2023-04-03T11:14:32.943Z,100402.47
2023-04-03T11:15:35.642Z,100401.69
2023-04-03T11:16:53.610Z,100405.94
2023-04-03T11:18:04.036Z,100397.00
2023-04-03T11:19:35.307Z,100401.31
2023-04-03T11:20:39.069Z,100397.00
2023-04-03T11:22:03.370Z,100403.44
2023-04-03T11:23:16.900Z,100408.41
2023-04-03T11:24:32.347Z,100396.88
2023-04-03T11:25:38.196Z,100401.50
2023-04-03T11:26:43.511Z,100401.84
2023-04-03T11:27:51.898Z,100393.25
2023-04-03T11:29:08.290Z,100392.38
2023-04-03T11:30:18.999Z,100395.84
2023-04-03T11:31:53.408Z,100395.75
2023-04-03T11:33:10.314Z,100393.88
2023-04-03T11:34:51.144Z,100394.84
2023-04-03T11:35:57.731Z,100399.25
2023-04-03T11:37:01.968Z,100403.06
2023-04-03T11:38:07.619Z,100403.94
2023-04-03T11:39:34.890Z,100391.13
2023-04-03T11:40:39.247Z,100397.81
2023-04-03T11:41:41.720Z,100393.03
2023-04-03T11:42:50.086Z,100397.78
2023-04-03T11:44:05.067Z,100396.66
2023-04-03T11:45:28.113Z,100386.88
2023-04-03T11:46:53.644Z,100384.00
2023-04-03T11:48:25.235Z,100402.50
2023-04-03T11:49:52.156Z,100392.88
2023-04-03T11:50:54.333Z,100386.34
2023-04-03T11:51:56.494Z,100390.66
2023-04-03T11:53:00.710Z,100388.28
2023-04-03T11:54:45.912Z,100381.19
2023-04-03T11:55:51.033Z,100387.31
2023-04-03T11:56:53.157Z,100387.13
2023-04-03T11:58:01.417Z,100389.63
2023-04-03T11:59:13.394Z,100383.88
2023-04-03T12:00:52.685Z,100384.34
2023-04-03T12:01:57.719Z,100390.56
2023-04-03T12:03:00.578Z,100387.03
2023-04-03T12:04:15.577Z,100383.22
2023-04-03T12:05:29.862Z,100382.53
2023-04-03T12:06:34.493Z,100380.97
2023-04-03T12:07:36.540Z,100373.97
2023-04-03T12:08:42.381Z,100379.47
2023-04-03T12:09:44.865Z,100378.41
2023-04-03T12:11:09.768Z,100376.28
2023-04-03T12:12:32.992Z,100371.81
2023-04-03T12:13:39.017Z,100383.88
2023-04-03T12:14:41.412Z,100383.03
2023-04-03T12:15:51.371Z,100374.97
2023-04-03T12:16:58.516Z,100377.84
2023-04-03T12:18:00.855Z,100371.81
2023-04-03T12:19:15.045Z,100373.91
2023-04-03T12:20:50.919Z,100371.78
2023-04-03T12:21:58.157Z,100371.69
2023-04-03T12:23:24.831Z,100377.91
2023-04-03T12:24:30.690Z,100378.97
2023-04-03T12:25:51.020Z,100379.66
2023-04-03T12:27:02.900Z,100379.25
2023-04-03T12:28:07.678Z,100376.75
2023-04-03T12:29:15.521Z,100374.00
2023-04-03T12:30:27.858Z,100375.97
2023-04-03T12:31:46.780Z,100374.25
2023-04-03T12:33:05.662Z,100385.16
2023-04-03T12:34:47.922Z,100380.94